Time;durP1;ratioP1;P1;durP2;ratioP2;P2;SDS_P1;SDS_P2;PMS_P1;PMS_P2;Temp;Humidity;BMP_temperature;BMP_pressure;BME280_temperature;BME280_humidity;BME280_pressure;Samples;Min_cycle;Max_cycle;Signal;HPM_P1;HPM_P2
2022/01/29 00:01:18;;;;;;;16.77;4.78;;;;;;;-1.24;100.00;100667.31;5075400;28;20043;-81
2022/01/29 00:04:02;;;;;;;8.60;3.72;;;;;;;-1.25;100.00;100675.88;5078248;28;20036;-81
2022/01/29 00:06:46;;;;;;;12.95;5.50;;;;;;;-1.22;100.00;100682.81;5078170;28;20094;-81
2022/01/29 00:09:31;;;;;;;77.05;25.15;;;;;;;-1.18;100.00;100682.09;5079081;28;20048;-81
2022/01/29 00:12:15;;;;;;;49.72;21.42;;;;;;;-1.21;100.00;100685.44;5079025;28;20119;-81
2022/01/29 00:15:00;;;;;;;27.48;13.15;;;;;;;-1.26;100.00;100680.97;5078811;28;20055;-81
2022/01/29 00:17:45;;;;;;;12.95;4.97;;;;;;;-1.21;100.00;100679.41;5078751;28;20040;-81
2022/01/29 00:20:30;;;;;;;14.15;5.15;;;;;;;-1.30;100.00;100671.38;5077966;28;20041;-81
2022/01/29 00:23:14;;;;;;;10.95;4.25;;;;;;;-1.31;100.00;100669.63;5077878;28;20070;-81
2022/01/29 00:25:59;;;;;;;11.55;3.90;;;;;;;-1.27;100.00;100666.34;5078758;28;20037;-81
2022/01/29 00:28:44;;;;;;;11.98;3.22;;;;;;;-1.28;100.00;100675.75;5077880;28;20049;-81
2022/01/29 00:31:31;;;;;;;9.20;2.90;;;;;;;-1.31;100.00;100675.63;5078572;28;20033;-81
2022/01/29 00:34:15;;;;;;;8.40;3.38;;;;;;;-1.33;100.00;100678.97;5078512;28;20071;-81
2022/01/29 00:37:00;;;;;;;12.93;3.22;;;;;;;-1.32;100.00;100675.59;5078436;28;20041;-81
2022/01/29 00:39:44;;;;;;;11.30;3.58;;;;;;;-1.29;100.00;100688.56;5078320;28;20051;-81
2022/01/29 00:42:29;;;;;;;7.22;3.05;;;;;;;-1.28;100.00;100692.88;5077891;28;20037;-81
2022/01/29 00:45:14;;;;;;;7.82;3.05;;;;;;;-1.35;100.00;100678.94;5063554;28;20037;-81
2022/01/29 00:47:59;;;;;;;9.90;3.28;;;;;;;-1.29;100.00;100686.00;5077477;28;20444;-81
2022/01/29 00:50:43;;;;;;;9.38;3.88;;;;;;;-1.42;100.00;100657.28;5077602;28;20492;-81
2022/01/29 00:53:28;;;;;;;10.35;3.72;;;;;;;-1.23;100.00;100684.53;5077514;28;20433;-80
2022/01/29 00:56:12;;;;;;;10.88;3.20;;;;;;;-1.27;100.00;100684.34;5077319;28;20325;-81
2022/01/29 00:58:58;;;;;;;7.25;3.00;;;;;;;-1.30;100.00;100677.41;5077125;28;20053;-81
2022/01/29 01:01:42;;;;;;;9.60;2.72;;;;;;;-1.24;100.00;100677.59;5077400;28;20036;-81
2022/01/29 01:04:27;;;;;;;11.35;4.05;;;;;;;-1.22;100.00;100675.97;5077183;28;20045;-80
2022/01/29 01:07:11;;;;;;;8.73;3.83;;;;;;;-1.20;100.00;100669.22;5077104;28;20052;-80
2022/01/29 01:09:56;;;;;;;9.43;3.60;;;;;;;-1.19;100.00;100673.53;5077806;28;20056;-81
2022/01/29 01:12:41;;;;;;;11.98;4.05;;;;;;;-1.20;100.00;100666.63;5077722;28;20438;-81
2022/01/29 01:15:25;;;;;;;14.63;4.38;;;;;;;-1.14;100.00;100671.09;5077814;28;20120;-81
2022/01/29 01:18:09;;;;;;;9.45;3.58;;;;;;;-1.17;100.00;100647.84;5076988;28;20046;-81
2022/01/29 01:20:54;;;;;;;13.00;4.50;;;;;;;-1.08;100.00;100663.63;5077466;28;20094;-81
2022/01/29 01:23:38;;;;;;;9.52;3.72;;;;;;;-1.01;100.00;100656.97;5077574;28;20391;-81
2022/01/29 01:26:23;;;;;;;8.80;2.80;;;;;;;-1.04;100.00;100649.16;5077651;28;20044;-81
2022/01/29 01:29:07;;;;;;;9.07;3.50;;;;;;;-1.04;100.00;100656.88;5076732;28;20045;-80
2022/01/29 01:31:52;;;;;;;10.07;3.42;;;;;;;-1.10;100.00;100647.28;5076685;28;20036;-80
2022/01/29 01:34:42;;;;;;;11.88;3.65;;;;;;;-1.00;100.00;100648.47;5077383;28;20049;-81
2022/01/29 01:37:39;;;;;;;13.60;3.80;;;;;;;-1.01;100.00;100636.41;5076505;28;20048;-81
2022/01/29 01:40:25;;;;;;;16.30;5.07;;;;;;;-1.06;100.00;100625.97;5077112;28;20048;-81
2022/01/29 01:43:10;;;;;;;12.82;4.57;;;;;;;-1.00;100.00;100625.31;5076376;28;20032;-81
2022/01/29 01:45:54;;;;;;;8.27;3.17;;;;;;;-1.04;100.00;100610.59;5076267;28;20036;-81
2022/01/29 01:48:39;;;;;;;12.15;4.00;;;;;;;-1.04;100.00;100618.31;5062437;28;20098;-81
2022/01/29 01:51:32;;;;;;;14.43;3.75;;;;;;;-1.07;100.00;100616.53;5077010;28;20044;-80
2022/01/29 01:54:17;;;;;;;10.85;3.65;;;;;;;-1.02;100.00;100612.41;5076236;28;20056;-80
2022/01/29 01:57:12;;;;;;;12.00;3.75;;;;;;;-1.05;100.00;100606.28;5063495;28;20056;-81
2022/01/29 01:59:57;;;;;;;14.88;3.97;;;;;;;-1.03;100.00;100604.66;5075933;28;20047;-81
2022/01/29 02:02:41;;;;;;;10.77;3.50;;;;;;;-1.02;100.00;100588.38;5076806;28;20429;-81
2022/01/29 02:05:26;;;;;;;13.88;4.30;;;;;;;-0.96;100.00;100602.31;5076635;28;20101;-81
2022/01/29 02:08:13;;;;;;;10.55;4.03;;;;;;;-0.93;100.00;100601.56;5061838;28;20076;-81
2022/01/29 02:11:05;;;;;;;13.10;3.47;;;;;;;-0.95;100.00;100596.34;5075860;28;20048;-81
2022/01/29 02:13:50;;;;;;;13.52;3.63;;;;;;;-0.99;100.00;100585.91;5076617;28;20045;-81
2022/01/29 02:16:35;;;;;;;13.25;4.72;;;;;;;-0.96;100.00;100599.75;5075679;28;20101;-80
2022/01/29 02:19:19;;;;;;;9.52;3.30;;;;;;;-1.00;100.00;100597.03;5076427;28;20046;-80
2022/01/29 02:22:04;;;;;;;11.23;3.67;;;;;;;-0.90;100.00;100601.66;5076373;28;20044;-81
2022/01/29 02:24:48;;;;;;;10.15;3.90;;;;;;;-0.89;100.00;100582.81;5075111;28;20037;-81
2022/01/29 02:27:33;;;;;;;13.07;4.30;;;;;;;-0.92;100.00;100592.13;5075624;28;20041;-81
2022/01/29 02:30:17;;;;;;;11.10;3.75;;;;;;;-0.97;100.00;100599.72;5075868;28;20048;-81
2022/01/29 02:33:05;;;;;;;10.13;3.72;;;;;;;-0.88;100.00;100591.41;5075460;28;20052;-81
2022/01/29 02:35:52;;;;;;;10.25;3.05;;;;;;;-0.92;100.00;100598.16;5061364;28;20119;-81
2022/01/29 02:38:36;;;;;;;11.52;3.67;;;;;;;-0.92;100.00;100585.28;5061306;28;20330;-81
2022/01/29 02:41:23;;;;;;;9.40;3.28;;;;;;;-0.92;100.00;100572.44;5075364;28;20045;-81
2022/01/29 02:44:09;;;;;;;12.13;3.35;;;;;;;-0.81;100.00;100573.69;5075450;28;20032;-81
2022/01/29 02:46:54;;;;;;;13.57;3.90;;;;;;;-0.91;100.00;100555.28;5076131;28;20064;-81
2022/01/29 02:49:39;;;;;;;12.15;4.20;;;;;;;-0.87;100.00;100560.63;5076102;28;20337;-81
2022/01/29 02:52:23;;;;;;;13.85;4.60;;;;;;;-0.85;100.00;100569.22;5061133;28;20052;-81
2022/01/29 02:55:08;;;;;;;15.68;5.95;;;;;;;-1.11;100.00;100521.22;5075262;28;20040;-81
2022/01/29 02:57:52;;;;;;;14.30;5.07;;;;;;;-0.95;100.00;100546.59;5075005;28;20053;-81
2022/01/29 03:00:36;;;;;;;17.95;5.13;;;;;;;-0.87;100.00;100542.59;5075205;28;20482;-81
2022/01/29 03:03:20;;;;;;;13.32;5.53;;;;;;;-0.89;100.00;100559.69;5075435;28;20040;-81
2022/01/29 03:06:09;;;;;;;12.27;5.45;;;;;;;-0.93;100.00;100557.84;5075114;28;20036;-81
2022/01/29 03:08:53;;;;;;;14.40;4.40;;;;;;;-0.93;100.00;100560.41;5075875;28;20048;-81
2022/01/29 03:11:38;;;;;;;14.32;4.45;;;;;;;-1.29;100.00;100488.06;5075194;28;20041;-81
2022/01/29 03:14:22;;;;;;;15.02;4.35;;;;;;;-0.96;100.00;100556.03;5075815;28;20047;-81
2022/01/29 03:17:07;;;;;;;17.15;4.47;;;;;;;-1.03;100.00;100540.34;5075751;28;20040;-81
2022/01/29 03:19:53;;;;;;;11.30;4.40;;;;;;;-0.97;100.00;100538.84;5075615;28;20048;-81
2022/01/29 03:22:38;;;;;;;9.60;3.75;;;;;;;-0.99;100.00;100531.91;5075792;28;20106;-81
2022/01/29 03:25:22;;;;;;;9.52;3.83;;;;;;;-0.96;100.00;100535.44;5074898;28;20045;-81
2022/01/29 03:28:06;;;;;;;13.77;4.80;;;;;;;-0.98;100.00;100528.50;5074941;28;20086;-81
2022/01/29 03:30:51;;;;;;;14.43;5.05;;;;;;;-1.04;100.00;100529.19;5060787;28;20044;-81
2022/01/29 03:33:36;;;;;;;13.90;5.38;;;;;;;-1.02;100.00;100517.25;5060852;28;20044;-81
2022/01/29 03:36:21;;;;;;;19.75;4.75;;;;;;;-1.07;100.00;100513.66;5076815;28;20036;-81
2022/01/29 03:39:05;;;;;;;10.57;4.03;;;;;;;-1.05;100.00;100508.56;5079470;28;20055;-81
2022/01/29 03:41:50;;;;;;;17.67;5.13;;;;;;;-1.07;100.00;100503.38;5078697;28;20044;-81
2022/01/29 03:44:34;;;;;;;15.38;4.45;;;;;;;-1.08;100.00;100503.31;5064739;28;20041;-81
2022/01/29 03:47:19;;;;;;;12.90;4.72;;;;;;;-1.16;100.00;100491.91;5078878;28;20126;-81
2022/01/29 03:50:04;;;;;;;20.08;4.75;;;;;;;-1.24;100.00;100497.66;5079289;28;20045;-81
2022/01/29 03:52:48;;;;;;;15.43;4.82;;;;;;;-1.14;100.00;100510.81;5078571;28;20119;-81
2022/01/29 03:55:33;;;;;;;16.88;4.93;;;;;;;-1.21;100.00;100499.47;5079182;28;20122;-81
2022/01/29 03:58:17;;;;;;;15.45;4.60;;;;;;;-1.18;100.00;100513.28;5078276;28;20056;-81
2022/01/29 04:01:01;;;;;;;12.05;4.63;;;;;;;-1.21;100.00;100496.88;5078957;28;20383;-81
2022/01/29 04:03:46;;;;;;;18.25;5.43;;;;;;;-1.23;100.00;100502.00;5064217;28;20052;-82
2022/01/29 04:06:31;;;;;;;27.33;5.70;;;;;;;-1.22;100.00;100497.72;5050193;28;20060;-81
2022/01/29 04:09:17;;;;;;;20.33;4.95;;;;;;;-1.19;100.00;100497.84;5079026;28;20078;-82
2022/01/29 04:12:02;;;;;;;17.08;4.40;;;;;;;-1.27;100.00;100478.69;5078151;28;20044;-81
2022/01/29 04:14:46;;;;;;;15.98;4.13;;;;;;;-1.23;100.00;100472.84;5078969;28;20052;-82
2022/01/29 04:17:31;;;;;;;16.38;5.30;;;;;;;-1.22;100.00;100469.44;5078860;28;20114;-81
2022/01/29 04:20:16;;;;;;;21.60;4.50;;;;;;;-1.25;100.00;100467.66;5077994;28;20036;-81
2022/01/29 04:23:01;;;;;;;17.75;4.82;;;;;;;-1.27;100.00;100466.75;5078823;28;20094;-82
2022/01/29 04:25:45;;;;;;;22.65;5.03;;;;;;;-1.28;100.00;100462.41;5078153;28;20047;-82
2022/01/29 04:28:35;;;;;;;23.88;6.00;;;;;;;-1.24;100.00;100469.38;5077915;28;20037;-81
2022/01/29 04:31:21;;;;;;;24.33;7.68;;;;;;;-1.25;100.00;100459.94;5078874;28;20059;-82
2022/01/29 04:34:05;;;;;;;17.13;4.97;;;;;;;-1.13;100.00;100467.19;5078421;28;20040;-82
2022/01/29 04:36:50;;;;;;;18.15;4.30;;;;;;;-1.12;100.00;100457.75;5063713;28;20052;-81
2022/01/29 04:39:35;;;;;;;27.25;7.57;;;;;;;-1.07;100.00;100451.06;5077635;28;20425;-82
2022/01/29 04:42:19;;;;;;;26.73;6.43;;;;;;;-0.99;100.00;100471.06;5077918;28;20055;-82
2022/01/29 04:45:04;;;;;;;25.75;7.00;;;;;;;-0.98;100.00;100465.06;5078295;28;20048;-82
2022/01/29 04:47:49;;;;;;;29.08;9.48;;;;;;;-0.86;100.00;100456.88;5077756;28;20437;-82
2022/01/29 04:50:33;;;;;;;36.75;11.02;;;;;;;-0.83;100.00;100454.41;5063501;28;20044;-82
2022/01/29 04:53:18;;;;;;;32.03;9.50;;;;;;;-0.72;100.00;100459.88;5077552;28;20045;-82
2022/01/29 04:56:03;;;;;;;24.02;8.02;;;;;;;-0.71;100.00;100456.50;5077413;28;20094;-82
2022/01/29 04:58:47;;;;;;;32.25;8.80;;;;;;;-0.64;100.00;100457.56;5077243;28;20131;-82
2022/01/29 05:01:32;;;;;;;25.88;8.85;;;;;;;-0.62;100.00;100461.03;5077262;28;20045;-83
2022/01/29 05:04:18;;;;;;;26.25;8.38;;;;;;;-0.63;100.00;100455.03;5077936;28;20044;-82
2022/01/29 05:07:03;;;;;;;30.13;9.18;;;;;;;-0.59;100.00;100455.97;5077177;28;20048;-82
2022/01/29 05:09:47;;;;;;;30.33;8.15;;;;;;;-0.67;100.00;100445.47;5063093;28;20433;-82
2022/01/29 05:27:40;;;;;;;29.50;9.25;;;;;;;-0.68;100.00;100418.00;5076834;28;20041;-82
2022/01/29 05:30:25;;;;;;;23.17;6.38;;;;;;;-0.69;100.00;100407.66;5076755;28;20048;-83
2022/01/29 05:33:09;;;;;;;26.77;6.38;;;;;;;-0.67;100.00;100403.44;5062639;28;20496;-82
2022/01/29 05:35:54;;;;;;;21.08;5.57;;;;;;;-0.71;100.00;100412.75;5062464;28;20040;-83
2022/01/29 05:38:38;;;;;;;17.63;4.88;;;;;;;-0.72;100.00;100401.56;5076677;28;20040;-82
2022/01/29 05:41:23;;;;;;;23.98;5.75;;;;;;;-0.69;100.00;100400.81;5076450;28;20036;-83
2022/01/29 05:44:08;;;;;;;24.40;5.65;;;;;;;-0.65;100.00;100386.31;5076518;28;20044;-83
2022/01/29 05:46:52;;;;;;;22.42;5.60;;;;;;;-0.63;100.00;100379.53;5077107;28;20056;-83
2022/01/29 05:49:37;;;;;;;26.13;5.30;;;;;;;-0.58;100.00;100371.13;5076337;28;20503;-83
2022/01/29 05:52:22;;;;;;;23.92;6.38;;;;;;;-0.49;100.00;100371.41;5076309;28;20139;-83
2022/01/29 05:55:06;;;;;;;20.63;6.38;;;;;;;-0.42;100.00;100361.25;5076205;28;20040;-83
2022/01/29 05:57:51;;;;;;;19.95;5.60;;;;;;;-0.39;100.00;100357.09;5075693;28;20060;-84
2022/01/29 06:00:35;;;;;;;19.77;5.28;;;;;;;-0.28;100.00;100344.50;5073826;28;20112;-83
2022/01/29 06:03:22;;;;;;;13.57;4.35;;;;;;;-0.28;100.00;100352.22;5060544;28;20048;-84
2022/01/29 06:06:06;;;;;;;25.40;6.07;;;;;;;-0.17;100.00;100348.22;5075582;28;20120;-84
2022/01/29 06:08:51;;;;;;;33.65;9.23;;;;;;;-0.11;100.00;100334.63;5075519;28;20036;-83
2022/01/29 06:11:36;;;;;;;31.00;6.78;;;;;;;-0.11;100.00;100322.63;5061384;28;20098;-84
2022/01/29 06:14:20;;;;;;;22.30;5.53;;;;;;;-0.10;100.00;100321.81;5075132;28;20033;-84
2022/01/29 06:17:04;;;;;;;22.70;5.45;;;;;;;-0.09;100.00;100314.97;5074750;28;20090;-84
2022/01/29 06:19:49;;;;;;;20.77;5.72;;;;;;;-0.05;100.00;100322.78;5059790;28;20040;-83
2022/01/29 06:22:33;;;;;;;21.00;6.40;;;;;;;-0.02;100.00;100329.72;5073077;28;20037;-84
2022/01/29 06:25:18;;;;;;;26.50;9.93;;;;;;;-0.03;100.00;100323.72;5073766;28;20036;-83
2022/01/29 06:28:03;;;;;;;24.10;7.32;;;;;;;0.04;100.00;100334.19;5074543;28;20365;-84
2022/01/29 06:30:48;;;;;;;122.07;50.92;;;;;;;0.02;100.00;100333.25;5075396;28;20041;-85
2022/01/29 06:33:32;;;;;;;95.25;45.60;;;;;;;0.14;100.00;100343.88;5075764;28;20045;-84
2022/01/29 06:36:17;;;;;;;113.38;57.53;;;;;;;0.20;100.00;100329.44;5059561;28;20041;-84
2022/01/29 06:39:02;;;;;;;44.33;15.88;;;;;;;0.19;100.00;100329.41;5074282;28;20105;-84
2022/01/29 06:41:46;;;;;;;30.08;9.93;;;;;;;0.22;100.00;100325.19;5075021;28;20041;-85
2022/01/29 06:44:30;;;;;;;32.40;9.50;;;;;;;0.22;100.00;100311.44;5074899;28;20056;-83
2022/01/29 06:47:14;;;;;;;33.08;10.98;;;;;;;0.32;100.00;100307.38;5074999;28;20125;-85
2022/01/29 06:49:59;;;;;;;33.00;9.93;;;;;;;0.30;100.00;100307.34;5075019;28;20044;-85
2022/01/29 06:52:43;;;;;;;33.60;10.25;;;;;;;0.33;100.00;100296.25;5075177;28;20044;-85
2022/01/29 06:55:28;;;;;;;34.83;11.60;;;;;;;0.43;100.00;100305.94;5074356;28;20052;-85
2022/01/29 06:58:12;;;;;;;28.08;7.03;;;;;;;0.47;100.00;100290.56;5075717;28;20045;-85
2022/01/29 07:00:56;;;;;;;140.25;83.22;;;;;;;0.45;100.00;100286.22;5075129;28;20040;-85
2022/01/29 07:03:41;;;;;;;30.25;11.35;;;;;;;0.50;100.00;100297.50;5075473;28;20040;-85
2022/01/29 07:06:25;;;;;;;25.88;7.18;;;;;;;0.51;100.00;100278.63;5075478;28;20417;-85
2022/01/29 07:09:09;;;;;;;28.50;7.53;;;;;;;0.50;100.00;100256.28;5076395;28;20158;-85
2022/01/29 07:11:58;;;;;;;33.00;9.65;;;;;;;0.63;100.00;100271.19;5061166;28;20036;-85
2022/01/29 07:14:42;;;;;;;48.00;11.27;;;;;;;0.58;100.00;100267.59;5076004;28;20399;-85
2022/01/29 07:17:26;;;;;;;29.08;8.68;;;;;;;0.69;100.00;100254.97;5046780;28;20063;-84
2022/01/29 07:20:11;;;;;;;50.17;16.20;;;;;;;0.73;100.00;100258.50;5075692;28;20040;-85
2022/01/29 07:22:55;;;;;;;46.97;13.70;;;;;;;0.79;100.00;100250.88;5075172;28;20098;-85
2022/01/29 07:25:39;;;;;;;35.40;12.85;;;;;;;0.71;100.00;100248.13;5075096;28;20322;-85
2022/01/29 07:28:24;;;;;;;49.75;15.73;;;;;;;0.80;100.00;100253.50;5075095;28;20314;-85
2022/01/29 07:31:08;;;;;;;32.28;10.23;;;;;;;0.85;100.00;100241.56;5076143;28;20048;-85
2022/01/29 07:33:52;;;;;;;34.00;8.48;;;;;;;0.99;100.00;100241.00;5076132;28;20064;-85
2022/01/29 07:36:37;;;;;;;58.25;29.10;;;;;;;1.07;100.00;100236.84;5075799;28;20071;-85
2022/01/29 07:39:23;;;;;;;43.92;27.52;;;;;;;1.17;100.00;100238.78;5074909;28;20037;-85
2022/01/29 07:42:08;;;;;;;32.88;13.55;;;;;;;1.15;100.00;100231.00;5074808;28;20051;-85
2022/01/29 07:44:53;;;;;;;34.80;9.07;;;;;;;1.23;100.00;100232.84;5074872;28;20068;-85
2022/01/29 07:47:37;;;;;;;25.20;7.18;;;;;;;1.24;100.00;100222.56;5074712;28;20049;-84
2022/01/29 07:50:22;;;;;;;24.23;6.05;;;;;;;1.21;100.00;100222.50;5060887;28;20044;-85
2022/01/29 07:53:06;;;;;;;28.25;6.72;;;;;;;1.21;100.00;100219.06;5075778;28;20037;-85
2022/01/29 07:55:50;;;;;;;29.13;5.70;;;;;;;1.26;100.00;100210.56;5075464;28;20318;-84
2022/01/29 07:58:35;;;;;;;22.15;5.60;;;;;;;1.31;100.00;100206.34;5075327;28;20052;-86
2022/01/29 08:01:20;;;;;;;28.42;9.13;;;;;;;1.36;100.00;100198.69;5074712;28;20345;-86
2022/01/29 08:04:04;;;;;;;94.78;35.83;;;;;;;1.44;100.00;100193.69;5061029;28;20448;-85
2022/01/29 08:06:49;;;;;;;34.55;10.15;;;;;;;1.37;100.00;100175.50;5075993;28;20045;-86
2022/01/29 08:09:33;;;;;;;32.15;7.93;;;;;;;1.28;100.00;100188.22;5075458;28;20442;-85
2022/01/29 08:12:17;;;;;;;27.35;7.00;;;;;;;1.33;100.00;100181.47;5075928;28;20044;-85
2022/01/29 08:15:03;;;;;;;22.02;7.60;;;;;;;1.40;100.00;100190.19;5060459;28;20057;-85
2022/01/29 08:17:47;;;;;;;23.63;6.32;;;;;;;1.40;100.00;100174.69;5075029;28;20049;-85
2022/01/29 08:20:32;;;;;;;21.88;7.18;;;;;;;1.46;100.00;100173.91;5074270;28;20101;-85
2022/01/29 08:23:16;;;;;;;15.98;6.25;;;;;;;1.61;100.00;100176.75;5076120;28;20060;-85
2022/01/29 08:26:01;;;;;;;22.67;7.28;;;;;;;1.61;100.00;100156.09;5078711;28;20400;-86
2022/01/29 08:28:45;;;;;;;25.77;7.95;;;;;;;1.74;100.00;100158.03;5078671;28;20369;-85
2022/01/29 08:31:30;;;;;;;43.78;13.00;;;;;;;1.77;100.00;100146.91;5077853;28;20491;-85
2022/01/29 08:34:14;;;;;;;56.20;21.08;;;;;;;2.04;100.00;100160.22;5079097;28;20112;-83
2022/01/29 08:37:02;;;;;;;72.95;29.35;;;;;;;2.12;100.00;100157.78;5077769;28;20318;-84
2022/01/29 08:39:47;;;;;;;115.32;42.63;;;;;;;2.21;100.00;100149.25;5063569;28;20044;-83
2022/01/29 08:42:31;;;;;;;197.43;70.82;;;;;;;2.24;100.00;100155.38;5078441;28;20051;-82
2022/01/29 08:45:16;;;;;;;267.45;87.68;;;;;;;2.14;100.00;100145.72;5078388;28;20102;-83
2022/01/29 08:48:01;;;;;;;191.88;59.25;;;;;;;2.18;100.00;100133.72;5078518;28;20056;-83
2022/01/29 08:50:45;;;;;;;358.58;121.30;;;;;;;2.32;100.00;100135.66;5078500;28;20413;-83
2022/01/29 08:53:29;;;;;;;149.95;73.68;;;;;;;2.37;100.00;100135.69;5077465;28;20036;-84
2022/01/29 08:56:16;;;;;;;122.68;64.32;;;;;;;2.43;100.00;100134.91;5078730;28;20318;-83
2022/01/29 08:59:00;;;;;;;57.42;31.13;;;;;;;2.56;100.00;100123.88;5063275;28;20048;-83
2022/01/29 09:01:44;;;;;;;36.38;18.10;;;;;;;2.49;100.00;100110.00;5063871;28;20036;-83
2022/01/29 09:04:29;;;;;;;40.50;24.88;;;;;;;2.61;100.00;100131.72;5078681;28;20040;-83
2022/01/29 09:07:13;;;;;;;34.03;16.33;;;;;;;2.60;100.00;100123.09;5077677;28;20090;-83
2022/01/29 09:09:58;;;;;;;34.42;16.00;;;;;;;2.70;100.00;100129.25;5077883;28;20044;-84
2022/01/29 09:12:42;;;;;;;22.13;8.65;;;;;;;2.60;100.00;100124.78;5077677;28;20066;-83
2022/01/29 09:15:27;;;;;;;25.65;7.97;;;;;;;2.76;100.00;100117.25;5078468;28;20040;-84
2022/01/29 09:18:11;;;;;;;20.48;7.63;;;;;;;2.77;100.00;100100.00;5077856;28;20045;-84
2022/01/29 09:20:56;;;;;;;25.90;8.77;;;;;;;2.83;100.00;100081.06;5077566;28;20051;-83
2022/01/29 09:23:41;;;;;;;39.38;21.88;;;;;;;2.96;100.00;100077.78;5077298;28;20052;-83
2022/01/29 09:26:26;;;;;;;38.20;19.92;;;;;;;3.00;100.00;100084.72;5077550;28;20040;-83
2022/01/29 09:29:10;;;;;;;25.30;9.45;;;;;;;2.87;100.00;100064.75;5076888;28;20055;-83
2022/01/29 09:31:55;;;;;;;28.08;8.25;;;;;;;2.97;100.00;100082.09;5077620;28;20052;-83
2022/01/29 09:34:39;;;;;;;25.42;10.18;;;;;;;3.03;100.00;100079.56;5076998;28;20048;-83
2022/01/29 09:37:24;;;;;;;42.92;18.10;;;;;;;3.03;100.00;100087.34;5077472;28;20041;-82
2022/01/29 09:40:09;;;;;;;148.65;83.65;;;;;;;2.93;100.00;100072.56;5076568;28;20432;-83
2022/01/29 09:42:54;;;;;;;70.05;35.50;;;;;;;2.93;100.00;100070.00;5076666;28;20511;-82
2022/01/29 09:45:39;;;;;;;28.15;12.95;;;;;;;2.90;100.00;100065.66;5077589;28;20047;-82
2022/01/29 09:48:28;;;;;;;33.00;11.65;;;;;;;2.93;100.00;100057.06;5077553;28;20099;-83
2022/01/29 09:51:13;;;;;;;33.63;8.38;;;;;;;2.80;100.00;100046.56;5077281;28;20044;-82
2022/01/29 09:53:57;;;;;;;24.85;7.05;;;;;;;2.84;100.00;100050.06;5077170;28;20072;-82
2022/01/29 09:56:42;;;;;;;22.52;7.13;;;;;;;2.83;100.00;100039.69;5077346;28;20044;-81
2022/01/29 09:59:27;;;;;;;22.50;7.85;;;;;;;2.78;100.00;100034.47;5076154;28;20056;-81
2022/01/29 10:02:16;;;;;;;22.05;5.28;;;;;;;2.85;100.00;100030.22;5062730;28;20040;-82
2022/01/29 10:05:00;;;;;;;20.00;6.20;;;;;;;2.76;100.00;100023.22;5076910;28;20044;-82
2022/01/29 10:08:00;;;;;;;21.80;6.07;;;;;;;2.73;100.00;100018.91;5076739;28;20040;-81
2022/01/29 10:10:46;;;;;;;14.85;5.65;;;;;;;2.77;100.00;100014.63;5076799;28;20099;-81
2022/01/29 10:13:34;;;;;;;18.52;7.05;;;;;;;2.83;100.00;100011.22;5076821;28;20044;-81
2022/01/29 10:16:19;;;;;;;18.30;7.03;;;;;;;2.70;100.00;99995.59;5077312;28;20044;-82
2022/01/29 10:19:06;;;;;;;25.20;7.32;;;;;;;2.72;100.00;99995.59;5076567;28;20040;-81
2022/01/29 10:21:51;;;;;;;20.30;6.40;;;;;;;2.71;100.00;99992.16;5076507;28;20115;-82
2022/01/29 10:24:49;;;;;;;37.72;12.57;;;;;;;2.57;100.00;99971.34;5075719;28;20349;-81
2022/01/29 10:27:33;;;;;;;22.25;7.57;;;;;;;2.64;100.00;99985.19;5047699;28;20049;-81
2022/01/29 10:30:17;;;;;;;25.70;6.95;;;;;;;2.69;100.00;99980.91;5061930;28;20048;-81
2022/01/29 10:33:24;;;;;;;32.30;10.43;;;;;;;2.69;100.00;99983.50;5076486;28;20429;-81
2022/01/29 10:36:14;;;;;;;18.25;6.78;;;;;;;2.65;100.00;99976.56;5075785;28;20123;-81
2022/01/29 10:39:00;;;;;;;33.58;16.42;;;;;;;2.68;100.00;99957.63;5061608;28;20094;-80
2022/01/29 10:41:44;;;;;;;21.45;6.90;;;;;;;2.60;100.00;99959.25;5075676;28;20047;-80
2022/01/29 10:44:43;;;;;;;17.65;6.03;;;;;;;2.61;100.00;99953.25;5075999;28;20401;-80
2022/01/29 10:47:30;;;;;;;18.80;6.45;;;;;;;2.65;100.00;99949.84;5076074;28;20044;-81
2022/01/29 10:50:14;;;;;;;21.92;6.50;;;;;;;2.70;100.00;99941.28;5061413;28;20064;-80
2022/01/29 10:53:25;;;;;;;23.52;8.35;;;;;;;2.68;100.00;99932.63;5075592;28;20123;-80
2022/01/29 10:56:10;;;;;;;23.33;7.93;;;;;;;2.65;100.00;99923.97;5076054;28;20413;-80
2022/01/29 10:58:54;;;;;;;34.42;19.08;;;;;;;2.63;100.00;99923.94;5075939;28;20053;-80
2022/01/29 11:01:39;;;;;;;64.53;31.95;;;;;;;2.63;100.00;99916.19;5076607;28;20051;-81
2022/01/29 11:04:27;;;;;;;40.95;20.70;;;;;;;2.62;100.00;99904.13;5076623;28;20098;-80
2022/01/29 11:07:26;;;;;;;66.75;36.70;;;;;;;2.61;100.00;99899.81;5075306;28;20123;-81
2022/01/29 11:10:10;;;;;;;32.55;17.77;;;;;;;2.50;100.00;99878.16;5075802;28;20040;-81
2022/01/29 11:12:56;;;;;;;24.38;9.57;;;;;;;2.50;100.00;99885.91;5061201;28;20045;-80
2022/01/29 11:15:40;;;;;;;21.58;6.97;;;;;;;2.43;100.00;99884.13;5075235;28;20349;-83
2022/01/29 11:18:27;;;;;;;30.38;9.40;;;;;;;2.43;100.00;99872.06;5075280;28;20041;-89
2022/01/29 11:21:11;;;;;;;246.70;92.05;;;;;;;2.36;100.00;99862.53;5075156;28;20101;-82
2022/01/29 11:23:56;;;;;;;329.67;115.32;;;;;;;2.32;100.00;99853.88;5075469;28;20041;-81
2022/01/29 11:26:41;;;;;;;301.85;95.30;;;;;;;2.32;100.00;99840.97;5061609;28;20389;-81
2022/01/29 11:29:29;;;;;;;339.63;100.85;;;;;;;2.30;100.00;99836.63;5075564;28;20041;-81
2022/01/29 11:32:22;;;;;;;252.45;81.93;;;;;;;2.19;100.00;99831.38;5076096;28;20040;-81
2022/01/29 11:35:12;;;;;;;264.77;82.30;;;;;;;2.18;100.00;99827.06;5075372;28;20106;-81
2022/01/29 11:38:03;;;;;;;329.88;120.93;;;;;;;2.10;100.00;99814.03;5074887;28;20041;-81
2022/01/29 11:40:57;;;;;;;240.15;93.18;;;;;;;2.14;100.00;99817.53;5074896;28;20037;-81
2022/01/29 11:43:41;;;;;;;139.95;60.90;;;;;;;2.09;100.00;99802.00;5075553;28;20146;-82
2022/01/29 11:46:34;;;;;;;101.50;50.13;;;;;;;2.04;100.00;99789.88;5075196;28;20040;-81
2022/01/29 11:49:23;;;;;;;61.90;33.45;;;;;;;2.03;100.00;99782.97;5076194;28;20060;-81
2022/01/29 11:52:25;;;;;;;60.80;26.70;;;;;;;1.98;100.00;99775.19;5075372;28;20104;-81
2022/01/29 11:55:09;;;;;;;30.98;14.52;;;;;;;1.93;100.00;99745.00;5075155;28;20127;-81
2022/01/29 11:58:18;;;;;;;24.83;10.65;;;;;;;2.07;100.00;99758.91;5076524;28;20045;-81
2022/01/29 12:01:04;;;;;;;23.90;10.48;;;;;;;1.94;100.00;99734.66;5078706;28;20068;-81
2022/01/29 12:03:48;;;;;;;26.40;14.50;;;;;;;2.01;100.00;99748.50;5079845;28;20066;-80
2022/01/29 12:06:35;;;;;;;23.20;13.40;;;;;;;1.96;100.00;99737.28;5078763;28;20040;-80
2022/01/29 12:09:25;;;;;;;25.80;13.10;;;;;;;1.92;100.00;99733.81;5079241;28;20040;-81
2022/01/29 12:12:16;;;;;;;22.33;11.57;;;;;;;1.93;100.00;99716.59;5064821;28;20064;-81
2022/01/29 12:15:10;;;;;;;20.92;10.20;;;;;;;1.92;100.00;99723.47;5079072;28;20045;-82
2022/01/29 12:17:59;;;;;;;16.88;8.02;;;;;;;1.84;100.00;99707.91;5079306;28;20048;-83
2022/01/29 12:20:44;;;;;;;18.40;9.85;;;;;;;1.83;100.00;99705.31;5078908;28;20037;-83
2022/01/29 12:23:28;;;;;;;19.02;9.52;;;;;;;1.80;100.00;99692.38;5064101;28;20060;-81
2022/01/29 12:26:12;;;;;;;16.60;9.38;;;;;;;1.75;100.00;99691.44;5078726;28;20040;-83
2022/01/29 12:28:57;;;;;;;24.52;13.63;;;;;;;1.75;100.00;99694.03;5078855;28;20115;-83
2022/01/29 12:31:50;;;;;;;15.60;9.45;;;;;;;1.79;100.00;99685.47;5078385;28;20215;-82
2022/01/29 12:34:35;;;;;;;19.95;9.30;;;;;;;1.66;100.00;99684.50;5078589;28;20477;-84
2022/01/29 12:37:20;;;;;;;15.38;9.32;;;;;;;1.48;100.00;99664.53;5079251;28;20052;-83
2022/01/29 12:40:07;;;;;;;16.48;9.35;;;;;;;1.54;100.00;99664.59;5078569;28;20138;-82
2022/01/29 12:42:57;;;;;;;39.80;17.58;;;;;;;1.43;100.00;99662.75;5063644;28;20086;-83
2022/01/29 12:45:41;;;;;;;128.10;61.60;;;;;;;1.41;100.00;99652.44;5064042;28;20116;-84
2022/01/29 12:48:26;;;;;;;180.38;80.30;;;;;;;1.55;100.00;99649.97;5063695;28;20037;-85
2022/01/29 12:51:12;;;;;;;180.25;92.57;;;;;;;1.50;100.00;99647.38;5063777;28;20051;-84